Time;durP1;ratioP1;P1;durP2;ratioP2;P2;SDS_P1;SDS_P2;PMS_P1;PMS_P2;Temp;Humidity;BMP_temperature;BMP_pressure;BME280_temperature;BME280_humidity;BME280_pressure;Samples;Min_cycle;Max_cycle;Signal;HPM_P1;HPM_P2
2021/08/26 00:19:27;;;;;;;7.40;4.90;;;;;;;14.04;100.00;99208.93;714016;1205;114606;-76
2021/08/26 00:34:29;;;;;;;6.60;3.93;;;;;;;14.21;100.00;99187.61;713732;1199;113128;-76
2021/08/26 00:49:32;;;;;;;7.30;4.67;;;;;;;14.33;100.00;99186.11;713602;1203;113625;-76
2021/08/26 01:04:40;;;;;;;7.60;5.13;;;;;;;14.33;100.00;99162.36;713685;1200;114577;-75
2021/08/26 01:19:42;;;;;;;8.93;5.07;;;;;;;14.49;100.00;99163.97;714071;1199;114263;-75
2021/08/26 01:34:44;;;;;;;9.77;5.23;;;;;;;14.59;100.00;99164.45;713702;1200;115152;-77
2021/08/26 01:49:52;;;;;;;7.15;5.28;;;;;;;14.67;100.00;99150.34;713733;1203;113693;-78
2021/08/26 02:04:54;;;;;;;7.00;5.35;;;;;;;14.79;100.00;99142.73;713678;1203;113619;-74
2021/08/26 02:19:56;;;;;;;6.18;4.53;;;;;;;14.84;100.00;99134.26;713649;1177;113483;-77
2021/08/26 02:34:59;;;;;;;7.23;5.13;;;;;;;14.85;100.00;99126.14;714161;1206;113388;-75
2021/08/26 02:50:02;;;;;;;8.23;5.17;;;;;;;14.88;100.00;99125.75;714645;1178;113637;-74
2021/08/26 03:05:04;;;;;;;9.50;5.13;;;;;;;14.97;100.00;99123.79;714909;1200;113744;-78
2021/08/26 03:20:08;;;;;;;7.03;4.03;;;;;;;14.91;100.00;99119.27;714990;1176;114591;-77
2021/08/26 03:35:10;;;;;;;8.70;5.03;;;;;;;14.91;100.00;99124.55;714940;1200;114050;-76
2021/08/26 03:50:12;;;;;;;8.75;5.28;;;;;;;14.99;100.00;99132.32;719127;1200;113764;-77
2021/08/26 04:05:14;;;;;;;7.83;4.40;;;;;;;15.04;100.00;99131.76;714807;1200;114145;-77
2021/08/26 04:20:17;;;;;;;7.90;4.95;;;;;;;15.02;100.00;99139.05;714674;1203;113630;-76
2021/08/26 04:35:19;;;;;;;5.05;3.90;;;;;;;15.17;100.00;99138.97;714433;1203;114815;-76
2021/08/26 04:50:21;;;;;;;7.25;4.90;;;;;;;15.27;100.00;99139.45;714050;1204;113560;-78
2021/08/26 05:05:23;;;;;;;6.73;5.20;;;;;;;15.50;100.00;99144.44;713767;1200;114293;-78
2021/08/26 05:20:26;;;;;;;8.97;4.63;;;;;;;15.72;100.00;99128.50;714125;1202;113668;-78
2021/08/26 05:35:28;;;;;;;8.68;4.38;;;;;;;15.98;100.00;99133.08;713851;1200;114723;-79
2021/08/26 05:50:30;;;;;;;8.30;4.80;;;;;;;16.14;100.00;99130.09;713748;1205;113528;-77
2021/08/26 06:05:32;;;;;;;7.33;4.93;;;;;;;16.29;100.00;99129.11;713749;1204;114872;-77
2021/08/26 06:20:36;;;;;;;9.53;5.73;;;;;;;16.20;100.00;99143.53;713662;1205;115031;-75
2021/08/26 06:35:39;;;;;;;6.40;4.50;;;;;;;16.10;100.00;99143.89;713961;1199;114522;-75
2021/08/26 06:50:41;;;;;;;8.70;6.20;;;;;;;16.59;100.00;99152.58;713835;1204;114129;-76
2021/08/26 07:22:19;;;;;;;8.03;6.10;;;;;;;17.75;100.00;99172.45;714088;1178;114364;-74
2021/08/26 07:37:22;;;;;;;5.05;3.90;;;;;;;18.87;100.00;99183.70;715028;1203;114130;-74
2021/08/26 07:52:25;;;;;;;5.28;3.40;;;;;;;19.27;100.00;99178.09;713979;1202;113947;-77
2021/08/26 08:07:27;;;;;;;8.08;3.58;;;;;;;20.31;100.00;99174.67;714761;1205;114186;-74
2021/08/26 08:22:30;;;;;;;5.35;2.80;;;;;;;20.03;100.00;99185.88;714304;1204;114077;-80
2021/08/26 08:37:32;;;;;;;5.03;3.30;;;;;;;20.06;100.00;99177.43;714249;1200;114962;-77
2021/08/26 08:52:36;;;;;;;43.95;39.13;;;;;;;21.68;100.00;99172.03;715235;1200;114987;-75
2021/08/26 09:07:39;;;;;;;5.35;2.93;;;;;;;20.30;100.00;99181.03;713965;1200;114010;-75
2021/08/26 09:22:43;;;;;;;30.95;16.93;;;;;;;19.42;100.00;99183.05;714482;1177;113569;-74
2021/08/26 09:37:56;;;;;;;5.80;3.50;;;;;;;21.10;100.00;99174.50;715483;1200;114788;-75
2021/08/26 09:52:59;;;;;;;4.05;2.25;;;;;;;23.80;95.89;99170.19;714547;1205;114024;-74
2021/08/26 10:08:03;;;;;;;1.88;1.38;;;;;;;23.06;83.44;99188.16;716787;1199;113893;-75
2021/08/26 10:23:06;;;;;;;4.85;1.35;;;;;;;24.34;80.30;99185.53;714491;1189;113474;-74
2021/08/26 10:38:29;;;;;;;3.50;1.77;;;;;;;22.68;79.48;99211.06;714503;1200;114260;-74
2021/08/26 10:53:34;;;;;;;4.23;2.98;;;;;;;20.48;81.85;99232.61;714672;1200;113453;-81
2021/08/26 11:08:39;;;;;;;1.77;1.40;;;;;;;20.06;85.30;99242.14;714503;1202;113347;-79
2021/08/26 11:23:46;;;;;;;4.23;2.50;;;;;;;20.28;88.76;99241.67;714185;1200;114635;-79
2021/08/26 11:38:52;;;;;;;1.87;1.00;;;;;;;21.42;86.06;99234.69;714193;1174;113322;-78
2021/08/26 11:53:54;;;;;;;3.20;1.10;;;;;;;22.91;82.80;99247.52;714364;1200;113489;-76
2021/08/26 12:08:58;;;;;;;2.20;1.00;;;;;;;24.86;76.75;99235.08;714254;1176;113408;-75
2021/08/26 14:39:01;;;;;;;17.75;12.33;;;;;;;18.99;99.20;99320.20;715438;1193;26245;-81
2021/08/26 14:54:06;;;;;;;5.80;4.35;;;;;;;18.73;100.00;99321.13;715712;1202;113440;-80
2021/08/26 15:09:08;;;;;;;6.80;3.78;;;;;;;18.37;100.00;99333.94;716203;1202;113735;-83
2021/08/26 15:24:11;;;;;;;17.43;10.93;;;;;;;18.54;100.00;99347.56;716021;1199;114298;-81
2021/08/26 15:39:13;;;;;;;9.88;6.10;;;;;;;19.35;100.00;99342.65;715000;1199;115460;-82
2021/08/26 15:54:21;;;;;;;26.63;18.48;;;;;;;18.71;100.00;99352.39;716337;1199;113016;-82
2021/08/26 16:09:23;;;;;;;33.40;24.15;;;;;;;18.37;100.00;99370.27;716944;1199;115364;-82
2021/08/26 16:24:29;;;;;;;23.25;15.28;;;;;;;17.98;100.00;99382.61;716510;1200;113766;-82
2021/08/26 16:39:32;;;;;;;10.20;6.90;;;;;;;17.64;100.00;99382.57;716137;1199;114701;-84
2021/08/26 16:54:34;;;;;;;14.83;11.65;;;;;;;17.29;100.00;99396.00;716651;1199;113500;-82
2021/08/26 17:09:37;;;;;;;18.97;8.97;;;;;;;17.36;100.00;99406.61;716464;1187;113950;-81
2021/08/26 17:24:40;;;;;;;21.25;13.18;;;;;;;17.20;100.00;99410.45;717039;1174;113828;-83
2021/08/26 17:39:43;;;;;;;25.38;15.63;;;;;;;16.64;100.00;99423.66;716563;1174;113938;-78
2021/08/26 17:54:46;;;;;;;18.88;8.88;;;;;;;16.40;100.00;99434.70;717633;1175;113790;-80
2021/08/26 18:09:48;;;;;;;46.98;33.13;;;;;;;16.28;100.00;99453.75;716929;1178;113830;-80
2021/08/26 18:24:51;;;;;;;9.43;5.77;;;;;;;16.28;100.00;99482.05;715205;1177;113999;-76
2021/08/26 18:39:53;;;;;;;6.90;5.27;;;;;;;16.39;100.00;99481.53;716230;1199;113657;-77
2021/08/26 18:54:56;;;;;;;9.80;4.70;;;;;;;16.21;100.00;99478.55;714952;1199;114157;-77
2021/08/26 19:09:59;;;;;;;11.30;7.13;;;;;;;15.77;100.00;99497.05;714867;1199;114869;-77
2021/08/26 19:25:02;;;;;;;9.43;4.60;;;;;;;15.74;100.00;99500.05;714585;1202;113193;-80
2021/08/26 19:40:10;;;;;;;26.63;14.93;;;;;;;15.89;100.00;99507.14;714364;1200;114573;-77
2021/08/26 19:55:13;;;;;;;12.73;6.68;;;;;;;15.84;100.00;99510.38;714337;1175;113869;-77
2021/08/26 20:10:16;;;;;;;12.10;5.00;;;;;;;15.60;100.00;99519.45;714023;1200;114635;-76
2021/08/26 20:25:19;;;;;;;8.38;4.80;;;;;;;15.70;100.00;99530.52;714411;1199;114401;-77
2021/08/26 20:40:22;;;;;;;11.10;6.58;;;;;;;15.79;100.00;99536.53;714440;1180;114861;-77
2021/08/26 20:55:25;;;;;;;30.35;21.93;;;;;;;15.77;100.00;99551.75;714160;1174;115244;-77
2021/08/26 21:10:27;;;;;;;6.35;4.05;;;;;;;15.69;100.00;99557.99;714619;1174;113962;-78
2021/08/26 21:25:30;;;;;;;7.05;4.75;;;;;;;15.45;100.00;99564.41;714406;1178;113592;-79
2021/08/26 21:40:32;;;;;;;14.50;7.70;;;;;;;15.35;100.00;99572.63;714235;1200;113546;-76
2021/08/26 21:55:34;;;;;;;6.75;5.30;;;;;;;15.00;100.00;99587.39;714132;1199;113918;-77
2021/08/26 22:10:37;;;;;;;15.83;7.68;;;;;;;15.08;100.00;99582.01;714387;1177;114158;-77
2021/08/26 22:25:39;;;;;;;11.20;7.80;;;;;;;14.90;100.00;99585.83;714394;1202;115192;-76
2021/08/26 22:40:41;;;;;;;13.55;6.38;;;;;;;14.91;100.00;99610.41;713866;1201;114095;-78
2021/08/26 22:55:44;;;;;;;11.60;7.00;;;;;;;14.90;100.00;99616.67;714310;1199;113327;-77
2021/08/26 23:10:46;;;;;;;11.33;7.10;;;;;;;14.85;100.00;99605.86;714234;1174;113843;-76
2021/08/26 23:25:50;;;;;;;9.63;5.60;;;;;;;14.93;100.00;99616.34;714439;1202;115218;-77
2021/08/26 23:40:52;;;;;;;9.38;5.50;;;;;;;14.94;100.00;99610.06;714088;1203;113758;-78
2021/08/26 23:55:54;;;;;;;14.37;8.23;;;;;;;14.76;100.00;99608.55;714086;1200;113610;-77
